sensor_id;sensor_type;location;lat;lon;timestamp;P1;durP1;ratioP1;P2;durP2;ratioP2
36009;SDS011;22076;52.182;5.404;2023-05-10T00:01:54;26.35;;;13.43;;
36009;SDS011;22076;52.182;5.404;2023-05-10T00:04:21;23.98;;;12.32;;
36009;SDS011;22076;52.182;5.404;2023-05-10T00:06:47;26.75;;;13.50;;
36009;SDS011;22076;52.182;5.404;2023-05-10T00:09:14;43.03;;;21.55;;
36009;SDS011;22076;52.182;5.404;2023-05-10T00:11:40;17.35;;;9.40;;
36009;SDS011;22076;52.182;5.404;2023-05-10T00:14:08;22.20;;;11.38;;
36009;SDS011;22076;52.182;5.404;2023-05-10T00:16:35;17.25;;;9.10;;
36009;SDS011;22076;52.182;5.404;2023-05-10T00:19:01;19.95;;;11.48;;
36009;SDS011;22076;52.182;5.404;2023-05-10T00:21:28;16.80;;;9.40;;
36009;SDS011;22076;52.182;5.404;2023-05-10T00:23:54;28.35;;;14.27;;
36009;SDS011;22076;52.182;5.404;2023-05-10T00:26:21;25.27;;;12.35;;
36009;SDS011;22076;52.182;5.404;2023-05-10T00:28:47;44.90;;;22.80;;
36009;SDS011;22076;52.182;5.404;2023-05-10T00:31:15;53.78;;;26.95;;
36009;SDS011;22076;52.182;5.404;2023-05-10T00:33:42;34.83;;;16.98;;
36009;SDS011;22076;52.182;5.404;2023-05-10T00:36:08;33.72;;;14.95;;
36009;SDS011;22076;52.182;5.404;2023-05-10T00:38:35;47.30;;;19.85;;
36009;SDS011;22076;52.182;5.404;2023-05-10T00:41:02;30.70;;;14.23;;
36009;SDS011;22076;52.182;5.404;2023-05-10T00:43:28;35.03;;;16.38;;
36009;SDS011;22076;52.182;5.404;2023-05-10T00:45:55;46.20;;;21.70;;
36009;SDS011;22076;52.182;5.404;2023-05-10T00:48:23;49.45;;;21.08;;
36009;SDS011;22076;52.182;5.404;2023-05-10T00:50:49;36.83;;;16.35;;
36009;SDS011;22076;52.182;5.404;2023-05-10T00:53:16;37.88;;;19.30;;
36009;SDS011;22076;52.182;5.404;2023-05-10T00:55:42;36.25;;;17.80;;
36009;SDS011;22076;52.182;5.404;2023-05-10T00:58:09;60.65;;;26.85;;
36009;SDS011;22076;52.182;5.404;2023-05-10T01:00:36;65.40;;;30.40;;
36009;SDS011;22076;52.182;5.404;2023-05-10T01:03:03;31.35;;;15.98;;
36009;SDS011;22076;52.182;5.404;2023-05-10T01:05:31;49.30;;;22.60;;
36009;SDS011;22076;52.182;5.404;2023-05-10T01:07:57;38.72;;;18.35;;
36009;SDS011;22076;52.182;5.404;2023-05-10T01:10:24;41.78;;;18.40;;
36009;SDS011;22076;52.182;5.404;2023-05-10T01:12:51;40.30;;;19.42;;
36009;SDS011;22076;52.182;5.404;2023-05-10T01:15:17;46.92;;;21.60;;
36009;SDS011;22076;52.182;5.404;2023-05-10T01:17:44;64.13;;;28.23;;
36009;SDS011;22076;52.182;5.404;2023-05-10T01:20:12;41.45;;;19.38;;
36009;SDS011;22076;52.182;5.404;2023-05-10T01:23:04;58.63;;;27.92;;
36009;SDS011;22076;52.182;5.404;2023-05-10T01:28:57;46.95;;;21.50;;
36009;SDS011;22076;52.182;5.404;2023-05-10T01:31:31;58.05;;;26.02;;
36009;SDS011;22076;52.182;5.404;2023-05-10T01:34:12;47.60;;;23.15;;
36009;SDS011;22076;52.182;5.404;2023-05-10T01:36:43;49.35;;;23.05;;
36009;SDS011;22076;52.182;5.404;2023-05-10T01:39:15;48.67;;;21.85;;
36009;SDS011;22076;52.182;5.404;2023-05-10T01:41:45;67.85;;;31.25;;
36009;SDS011;22076;52.182;5.404;2023-05-10T01:44:16;56.03;;;23.10;;
36009;SDS011;22076;52.182;5.404;2023-05-10T01:46:45;42.63;;;19.83;;
36009;SDS011;22076;52.182;5.404;2023-05-10T01:49:19;50.30;;;24.37;;
36009;SDS011;22076;52.182;5.404;2023-05-10T01:51:51;79.43;;;36.13;;
36009;SDS011;22076;52.182;5.404;2023-05-10T01:54:20;55.22;;;24.48;;
36009;SDS011;22076;52.182;5.404;2023-05-10T01:56:48;71.95;;;29.80;;
36009;SDS011;22076;52.182;5.404;2023-05-10T01:59:26;59.33;;;26.63;;
36009;SDS011;22076;52.182;5.404;2023-05-10T02:01:56;72.93;;;32.50;;
36009;SDS011;22076;52.182;5.404;2023-05-10T02:04:25;63.47;;;27.35;;
36009;SDS011;22076;52.182;5.404;2023-05-10T02:06:52;69.18;;;30.55;;
36009;SDS011;22076;52.182;5.404;2023-05-10T02:09:20;56.75;;;26.48;;
36009;SDS011;22076;52.182;5.404;2023-05-10T02:11:47;75.03;;;32.13;;
36009;SDS011;22076;52.182;5.404;2023-05-10T02:14:14;45.72;;;20.88;;
36009;SDS011;22076;52.182;5.404;2023-05-10T02:16:41;55.90;;;23.83;;
36009;SDS011;22076;52.182;5.404;2023-05-10T02:19:09;56.90;;;24.10;;
36009;SDS011;22076;52.182;5.404;2023-05-10T02:21:38;48.55;;;23.00;;
36009;SDS011;22076;52.182;5.404;2023-05-10T02:24:05;65.97;;;27.52;;
36009;SDS011;22076;52.182;5.404;2023-05-10T02:26:34;66.93;;;29.77;;
36009;SDS011;22076;52.182;5.404;2023-05-10T02:29:01;63.05;;;25.55;;
36009;SDS011;22076;52.182;5.404;2023-05-10T02:31:29;47.63;;;21.40;;
36009;SDS011;22076;52.182;5.404;2023-05-10T02:33:56;63.85;;;25.75;;
36009;SDS011;22076;52.182;5.404;2023-05-10T02:36:23;49.67;;;22.95;;
36009;SDS011;22076;52.182;5.404;2023-05-10T02:38:53;75.38;;;30.63;;
36009;SDS011;22076;52.182;5.404;2023-05-10T02:41:20;47.58;;;21.90;;
36009;SDS011;22076;52.182;5.404;2023-05-10T02:43:49;69.95;;;27.77;;
36009;SDS011;22076;52.182;5.404;2023-05-10T02:46:16;53.40;;;23.55;;
36009;SDS011;22076;52.182;5.404;2023-05-10T02:48:43;54.05;;;25.67;;
36009;SDS011;22076;52.182;5.404;2023-05-10T02:51:09;63.47;;;25.63;;
36009;SDS011;22076;52.182;5.404;2023-05-10T02:53:38;79.32;;;31.92;;
36009;SDS011;22076;52.182;5.404;2023-05-10T02:56:10;54.65;;;23.60;;
36009;SDS011;22076;52.182;5.404;2023-05-10T02:58:39;65.83;;;26.90;;
36009;SDS011;22076;52.182;5.404;2023-05-10T03:01:05;58.05;;;23.27;;
36009;SDS011;22076;52.182;5.404;2023-05-10T03:03:32;84.60;;;32.55;;
36009;SDS011;22076;52.182;5.404;2023-05-10T03:05:59;67.22;;;27.02;;
36009;SDS011;22076;52.182;5.404;2023-05-10T03:08:26;57.63;;;24.35;;
36009;SDS011;22076;52.182;5.404;2023-05-10T03:10:55;49.75;;;22.75;;
36009;SDS011;22076;52.182;5.404;2023-05-10T03:13:34;63.30;;;25.38;;
36009;SDS011;22076;52.182;5.404;2023-05-10T03:16:07;62.85;;;25.33;;
36009;SDS011;22076;52.182;5.404;2023-05-10T03:18:37;68.07;;;27.10;;
36009;SDS011;22076;52.182;5.404;2023-05-10T03:21:09;80.40;;;31.80;;
36009;SDS011;22076;52.182;5.404;2023-05-10T03:23:39;70.90;;;28.80;;
36009;SDS011;22076;52.182;5.404;2023-05-10T03:26:07;70.18;;;28.25;;
36009;SDS011;22076;52.182;5.404;2023-05-10T03:28:35;74.03;;;28.38;;
36009;SDS011;22076;52.182;5.404;2023-05-10T03:31:02;69.57;;;26.75;;
36009;SDS011;22076;52.182;5.404;2023-05-10T03:33:30;61.13;;;26.75;;
36009;SDS011;22076;52.182;5.404;2023-05-10T03:35:57;72.03;;;28.27;;
36009;SDS011;22076;52.182;5.404;2023-05-10T03:38:24;66.82;;;27.10;;
36009;SDS011;22076;52.182;5.404;2023-05-10T03:40:50;85.00;;;35.15;;
36009;SDS011;22076;52.182;5.404;2023-05-10T03:43:16;73.13;;;29.95;;
36009;SDS011;22076;52.182;5.404;2023-05-10T03:45:44;75.35;;;28.95;;
36009;SDS011;22076;52.182;5.404;2023-05-10T03:48:11;74.15;;;31.00;;
36009;SDS011;22076;52.182;5.404;2023-05-10T03:50:38;62.47;;;24.73;;
36009;SDS011;22076;52.182;5.404;2023-05-10T03:53:05;76.10;;;29.55;;
36009;SDS011;22076;52.182;5.404;2023-05-10T03:55:31;70.32;;;28.63;;
36009;SDS011;22076;52.182;5.404;2023-05-10T03:57:59;61.08;;;25.73;;
36009;SDS011;22076;52.182;5.404;2023-05-10T04:00:26;101.38;;;38.50;;
36009;SDS011;22076;52.182;5.404;2023-05-10T04:02:53;68.82;;;28.92;;
36009;SDS011;22076;52.182;5.404;2023-05-10T04:05:20;75.40;;;29.20;;
36009;SDS011;22076;52.182;5.404;2023-05-10T04:07:46;90.45;;;35.67;;
36009;SDS011;22076;52.182;5.404;2023-05-10T04:10:14;73.88;;;29.15;;
36009;SDS011;22076;52.182;5.404;2023-05-10T04:12:41;135.15;;;46.65;;
36009;SDS011;22076;52.182;5.404;2023-05-10T04:15:08;79.22;;;33.10;;
36009;SDS011;22076;52.182;5.404;2023-05-10T04:17:35;83.60;;;33.85;;
36009;SDS011;22076;52.182;5.404;2023-05-10T04:20:04;72.53;;;28.60;;
36009;SDS011;22076;52.182;5.404;2023-05-10T04:22:32;80.97;;;31.80;;
36009;SDS011;22076;52.182;5.404;2023-05-10T04:24:58;91.88;;;33.03;;
36009;SDS011;22076;52.182;5.404;2023-05-10T04:27:25;86.70;;;32.83;;
36009;SDS011;22076;52.182;5.404;2023-05-10T04:29:52;97.95;;;36.03;;
36009;SDS011;22076;52.182;5.404;2023-05-10T04:32:18;107.00;;;38.63;;
36009;SDS011;22076;52.182;5.404;2023-05-10T04:34:45;76.72;;;29.60;;
36009;SDS011;22076;52.182;5.404;2023-05-10T04:37:13;100.90;;;34.28;;
36009;SDS011;22076;52.182;5.404;2023-05-10T04:39:39;95.95;;;37.47;;
36009;SDS011;22076;52.182;5.404;2023-05-10T04:42:06;69.88;;;28.38;;
36009;SDS011;22076;52.182;5.404;2023-05-10T04:44:33;58.30;;;23.40;;
36009;SDS011;22076;52.182;5.404;2023-05-10T04:46:59;67.47;;;27.20;;
36009;SDS011;22076;52.182;5.404;2023-05-10T04:49:27;57.58;;;25.75;;
36009;SDS011;22076;52.182;5.404;2023-05-10T04:51:53;73.28;;;30.98;;
36009;SDS011;22076;52.182;5.404;2023-05-10T04:54:21;90.32;;;36.92;;
36009;SDS011;22076;52.182;5.404;2023-05-10T04:56:48;70.10;;;28.50;;
36009;SDS011;22076;52.182;5.404;2023-05-10T04:59:14;85.13;;;33.65;;
36009;SDS011;22076;52.182;5.404;2023-05-10T05:01:41;72.15;;;31.70;;
36009;SDS011;22076;52.182;5.404;2023-05-10T05:04:07;68.55;;;27.67;;
36009;SDS011;22076;52.182;5.404;2023-05-10T05:06:34;63.67;;;27.15;;
36009;SDS011;22076;52.182;5.404;2023-05-10T05:09:00;96.45;;;36.92;;
36009;SDS011;22076;52.182;5.404;2023-05-10T05:11:28;77.78;;;31.27;;
36009;SDS011;22076;52.182;5.404;2023-05-10T05:13:55;65.07;;;27.42;;
36009;SDS011;22076;52.182;5.404;2023-05-10T05:16:23;92.05;;;38.15;;
36009;SDS011;22076;52.182;5.404;2023-05-10T05:18:50;73.65;;;29.83;;
36009;SDS011;22076;52.182;5.404;2023-05-10T05:21:17;94.82;;;34.88;;
36009;SDS011;22076;52.182;5.404;2023-05-10T05:23:44;90.40;;;33.50;;
36009;SDS011;22076;52.182;5.404;2023-05-10T05:26:11;81.55;;;33.92;;
36009;SDS011;22076;52.182;5.404;2023-05-10T05:28:39;97.57;;;36.80;;
36009;SDS011;22076;52.182;5.404;2023-05-10T05:31:05;98.53;;;39.10;;
36009;SDS011;22076;52.182;5.404;2023-05-10T05:33:33;74.28;;;30.13;;
36009;SDS011;22076;52.182;5.404;2023-05-10T05:36:00;81.25;;;33.92;;
36009;SDS011;22076;52.182;5.404;2023-05-10T05:38:26;87.68;;;34.42;;
36009;SDS011;22076;52.182;5.404;2023-05-10T05:40:53;81.82;;;33.47;;
36009;SDS011;22076;52.182;5.404;2023-05-10T05:43:20;68.57;;;30.75;;
36009;SDS011;22076;52.182;5.404;2023-05-10T05:45:48;89.30;;;36.22;;
36009;SDS011;22076;52.182;5.404;2023-05-10T05:48:14;82.47;;;34.95;;
36009;SDS011;22076;52.182;5.404;2023-05-10T05:50:41;94.05;;;37.38;;
36009;SDS011;22076;52.182;5.404;2023-05-10T05:53:08;83.90;;;34.13;;
36009;SDS011;22076;52.182;5.404;2023-05-10T05:55:34;77.80;;;31.02;;
36009;SDS011;22076;52.182;5.404;2023-05-10T05:58:01;77.30;;;31.95;;
36009;SDS011;22076;52.182;5.404;2023-05-10T06:00:28;84.38;;;32.88;;
36009;SDS011;22076;52.182;5.404;2023-05-10T06:02:56;86.22;;;34.60;;
36009;SDS011;22076;52.182;5.404;2023-05-10T06:05:23;63.35;;;26.42;;
36009;SDS011;22076;52.182;5.404;2023-05-10T06:07:49;58.58;;;27.20;;
36009;SDS011;22076;52.182;5.404;2023-05-10T06:10:16;65.72;;;28.80;;
36009;SDS011;22076;52.182;5.404;2023-05-10T06:12:42;80.95;;;33.88;;
36009;SDS011;22076;52.182;5.404;2023-05-10T06:15:09;69.50;;;29.70;;
36009;SDS011;22076;52.182;5.404;2023-05-10T06:17:36;67.82;;;27.63;;
36009;SDS011;22076;52.182;5.404;2023-05-10T06:20:05;53.72;;;24.85;;
36009;SDS011;22076;52.182;5.404;2023-05-10T06:22:33;45.40;;;22.73;;
36009;SDS011;22076;52.182;5.404;2023-05-10T06:24:59;60.13;;;26.08;;
36009;SDS011;22076;52.182;5.404;2023-05-10T06:27:26;47.85;;;21.50;;
36009;SDS011;22076;52.182;5.404;2023-05-10T06:29:53;60.63;;;25.88;;
36009;SDS011;22076;52.182;5.404;2023-05-10T06:32:20;47.83;;;23.48;;
36009;SDS011;22076;52.182;5.404;2023-05-10T06:34:47;56.97;;;25.73;;
36009;SDS011;22076;52.182;5.404;2023-05-10T06:37:15;48.20;;;21.77;;
36009;SDS011;22076;52.182;5.404;2023-05-10T06:39:41;41.28;;;21.13;;
36009;SDS011;22076;52.182;5.404;2023-05-10T06:42:08;46.30;;;22.40;;
36009;SDS011;22076;52.182;5.404;2023-05-10T06:44:34;55.17;;;24.33;;
36009;SDS011;22076;52.182;5.404;2023-05-10T06:47:01;53.20;;;23.60;;
36009;SDS011;22076;52.182;5.404;2023-05-10T06:49:27;46.63;;;20.88;;
36009;SDS011;22076;52.182;5.404;2023-05-10T06:51:55;41.47;;;19.92;;
36009;SDS011;22076;52.182;5.404;2023-05-10T06:54:23;48.03;;;21.65;;
36009;SDS011;22076;52.182;5.404;2023-05-10T06:56:50;52.40;;;22.20;;
36009;SDS011;22076;52.182;5.404;2023-05-10T06:59:17;45.80;;;19.80;;
36009;SDS011;22076;52.182;5.404;2023-05-10T07:01:44;44.67;;;20.48;;
36009;SDS011;22076;52.182;5.404;2023-05-10T07:04:10;47.05;;;20.02;;
36009;SDS011;22076;52.182;5.404;2023-05-10T07:06:38;45.95;;;20.67;;
36009;SDS011;22076;52.182;5.404;2023-05-10T07:09:06;43.80;;;20.45;;
36009;SDS011;22076;52.182;5.404;2023-05-10T07:11:34;44.40;;;21.05;;
36009;SDS011;22076;52.182;5.404;2023-05-10T07:14:02;36.55;;;18.45;;
36009;SDS011;22076;52.182;5.404;2023-05-10T07:16:29;43.80;;;20.30;;
36009;SDS011;22076;52.182;5.404;2023-05-10T07:18:55;36.53;;;17.58;;
36009;SDS011;22076;52.182;5.404;2023-05-10T07:21:23;43.30;;;18.70;;
36009;SDS011;22076;52.182;5.404;2023-05-10T07:23:50;41.33;;;18.88;;
36009;SDS011;22076;52.182;5.404;2023-05-10T07:26:16;59.05;;;23.75;;
36009;SDS011;22076;52.182;5.404;2023-05-10T07:28:44;49.72;;;22.73;;
36009;SDS011;22076;52.182;5.404;2023-05-10T07:31:11;36.97;;;16.23;;
36009;SDS011;22076;52.182;5.404;2023-05-10T07:33:37;43.88;;;18.75;;
36009;SDS011;22076;52.182;5.404;2023-05-10T07:36:04;43.33;;;20.75;;
36009;SDS011;22076;52.182;5.404;2023-05-10T07:38:31;33.53;;;16.20;;
36009;SDS011;22076;52.182;5.404;2023-05-10T07:40:57;46.00;;;20.60;;
36009;SDS011;22076;52.182;5.404;2023-05-10T07:43:24;40.17;;;18.35;;
36009;SDS011;22076;52.182;5.404;2023-05-10T07:45:52;32.72;;;15.38;;
36009;SDS011;22076;52.182;5.404;2023-05-10T07:48:18;32.10;;;16.38;;
36009;SDS011;22076;52.182;5.404;2023-05-10T07:50:45;48.63;;;21.83;;
36009;SDS011;22076;52.182;5.404;2023-05-10T07:53:11;31.20;;;15.93;;
36009;SDS011;22076;52.182;5.404;2023-05-10T07:55:38;30.65;;;15.60;;
36009;SDS011;22076;52.182;5.404;2023-05-10T07:58:05;47.05;;;20.50;;
36009;SDS011;22076;52.182;5.404;2023-05-10T08:00:32;30.77;;;15.60;;
36009;SDS011;22076;52.182;5.404;2023-05-10T08:03:00;34.38;;;15.57;;
36009;SDS011;22076;52.182;5.404;2023-05-10T08:05:26;33.22;;;15.68;;
36009;SDS011;22076;52.182;5.404;2023-05-10T08:07:53;33.42;;;16.77;;
36009;SDS011;22076;52.182;5.404;2023-05-10T08:10:19;26.73;;;14.50;;
36009;SDS011;22076;52.182;5.404;2023-05-10T08:12:46;32.45;;;16.27;;
36009;SDS011;22076;52.182;5.404;2023-05-10T08:15:12;28.05;;;14.85;;
36009;SDS011;22076;52.182;5.404;2023-05-10T08:17:39;30.10;;;16.02;;
36009;SDS011;22076;52.182;5.404;2023-05-10T08:20:07;33.35;;;16.95;;
36009;SDS011;22076;52.182;5.404;2023-05-10T08:22:34;23.98;;;13.20;;
36009;SDS011;22076;52.182;5.404;2023-05-10T08:25:03;26.67;;;13.35;;
36009;SDS011;22076;52.182;5.404;2023-05-10T08:27:30;24.35;;;13.23;;
36009;SDS011;22076;52.182;5.404;2023-05-10T08:29:57;25.17;;;12.40;;
36009;SDS011;22076;52.182;5.404;2023-05-10T08:32:23;22.30;;;11.52;;
36009;SDS011;22076;52.182;5.404;2023-05-10T08:34:50;24.52;;;12.70;;
36009;SDS011;22076;52.182;5.404;2023-05-10T08:37:18;30.27;;;15.30;;
36009;SDS011;22076;52.182;5.404;2023-05-10T08:39:45;27.98;;;16.42;;
36009;SDS011;22076;52.182;5.404;2023-05-10T08:42:13;30.33;;;15.23;;
36009;SDS011;22076;52.182;5.404;2023-05-10T08:44:43;19.20;;;10.68;;
36009;SDS011;22076;52.182;5.404;2023-05-10T08:47:09;29.13;;;13.93;;
36009;SDS011;22076;52.182;5.404;2023-05-10T08:49:36;21.13;;;10.70;;
36009;SDS011;22076;52.182;5.404;2023-05-10T08:52:03;25.08;;;12.95;;
36009;SDS011;22076;52.182;5.404;2023-05-10T08:54:32;32.00;;;15.82;;
36009;SDS011;22076;52.182;5.404;2023-05-10T08:56:59;21.58;;;11.85;;
36009;SDS011;22076;52.182;5.404;2023-05-10T08:59:26;27.42;;;14.25;;
36009;SDS011;22076;52.182;5.404;2023-05-10T09:01:53;23.45;;;12.43;;
36009;SDS011;22076;52.182;5.404;2023-05-10T09:04:22;24.08;;;13.02;;
36009;SDS011;22076;52.182;5.404;2023-05-10T09:06:50;24.55;;;11.73;;
36009;SDS011;22076;52.182;5.404;2023-05-10T09:09:16;29.20;;;15.05;;
36009;SDS011;22076;52.182;5.404;2023-05-10T09:11:44;20.38;;;11.23;;
36009;SDS011;22076;52.182;5.404;2023-05-10T09:14:11;22.17;;;11.68;;
36009;SDS011;22076;52.182;5.404;2023-05-10T09:16:39;22.20;;;12.20;;
36009;SDS011;22076;52.182;5.404;2023-05-10T09:19:07;21.10;;;10.35;;
36009;SDS011;22076;52.182;5.404;2023-05-10T09:21:34;13.88;;;8.70;;
36009;SDS011;22076;52.182;5.404;2023-05-10T09:24:03;15.93;;;8.35;;
36009;SDS011;22076;52.182;5.404;2023-05-10T09:26:30;13.40;;;7.47;;
36009;SDS011;22076;52.182;5.404;2023-05-10T09:28:59;12.45;;;8.05;;
36009;SDS011;22076;52.182;5.404;2023-05-10T09:31:42;16.38;;;8.57;;
36009;SDS011;22076;52.182;5.404;2023-05-10T09:34:11;14.38;;;8.00;;
36009;SDS011;22076;52.182;5.404;2023-05-10T09:36:49;15.80;;;8.52;;
36009;SDS011;22076;52.182;5.404;2023-05-10T09:39:16;11.35;;;6.55;;
36009;SDS011;22076;52.182;5.404;2023-05-10T09:41:43;15.43;;;7.82;;
36009;SDS011;22076;52.182;5.404;2023-05-10T09:44:11;14.88;;;8.35;;
36009;SDS011;22076;52.182;5.404;2023-05-10T09:46:38;12.85;;;7.60;;
36009;SDS011;22076;52.182;5.404;2023-05-10T09:49:05;18.73;;;8.65;;
36009;SDS011;22076;52.182;5.404;2023-05-10T09:51:31;13.18;;;6.82;;
36009;SDS011;22076;52.182;5.404;2023-05-10T09:54:08;13.05;;;7.63;;
36009;SDS011;22076;52.182;5.404;2023-05-10T09:56:35;13.13;;;7.15;;
36009;SDS011;22076;52.182;5.404;2023-05-10T09:59:06;9.95;;;5.85;;
36009;SDS011;22076;52.182;5.404;2023-05-10T10:01:34;12.68;;;7.60;;
36009;SDS011;22076;52.182;5.404;2023-05-10T10:04:02;11.55;;;6.53;;
36009;SDS011;22076;52.182;5.404;2023-05-10T10:06:29;12.82;;;6.35;;
36009;SDS011;22076;52.182;5.404;2023-05-10T10:09:01;10.13;;;6.30;;
36009;SDS011;22076;52.182;5.404;2023-05-10T10:11:28;11.50;;;7.15;;
36009;SDS011;22076;52.182;5.404;2023-05-10T10:13:54;14.18;;;7.78;;
36009;SDS011;22076;52.182;5.404;2023-05-10T10:16:21;10.40;;;6.57;;
36009;SDS011;22076;52.182;5.404;2023-05-10T10:18:49;11.73;;;6.25;;
36009;SDS011;22076;52.182;5.404;2023-05-10T10:21:16;12.63;;;7.10;;
36009;SDS011;22076;52.182;5.404;2023-05-10T10:23:43;15.68;;;8.18;;
36009;SDS011;22076;52.182;5.404;2023-05-10T10:26:09;14.63;;;8.55;;
36009;SDS011;22076;52.182;5.404;2023-05-10T10:28:39;12.38;;;7.45;;
36009;SDS011;22076;52.182;5.404;2023-05-10T10:31:13;15.73;;;9.13;;
36009;SDS011;22076;52.182;5.404;2023-05-10T10:33:56;14.55;;;8.50;;
36009;SDS011;22076;52.182;5.404;2023-05-10T10:36:30;14.70;;;9.13;;
36009;SDS011;22076;52.182;5.404;2023-05-10T10:38:59;16.27;;;8.05;;
36009;SDS011;22076;52.182;5.404;2023-05-10T10:41:27;14.57;;;7.78;;
36009;SDS011;22076;52.182;5.404;2023-05-10T10:47:00;14.07;;;8.35;;
36009;SDS011;22076;52.182;5.404;2023-05-10T10:49:32;11.73;;;7.22;;
36009;SDS011;22076;52.182;5.404;2023-05-10T10:54:51;17.38;;;9.82;;
36009;SDS011;22076;52.182;5.404;2023-05-10T10:57:19;12.98;;;6.85;;
36009;SDS011;22076;52.182;5.404;2023-05-10T10:59:47;15.20;;;8.27;;
36009;SDS011;22076;52.182;5.404;2023-05-10T11:02:32;12.73;;;8.20;;
36009;SDS011;22076;52.182;5.404;2023-05-10T11:05:03;11.70;;;5.88;;
36009;SDS011;22076;52.182;5.404;2023-05-10T11:08:06;11.65;;;6.72;;
36009;SDS011;22076;52.182;5.404;2023-05-10T11:10:37;14.07;;;7.70;;
36009;SDS011;22076;52.182;5.404;2023-05-10T11:13:05;11.70;;;6.97;;
36009;SDS011;22076;52.182;5.404;2023-05-10T11:15:32;12.75;;;7.95;;
36009;SDS011;22076;52.182;5.404;2023-05-10T11:18:02;12.60;;;6.78;;
36009;SDS011;22076;52.182;5.404;2023-05-10T11:20:44;14.25;;;8.93;;
36009;SDS011;22076;52.182;5.404;2023-05-10T11:23:12;9.32;;;5.82;;
36009;SDS011;22076;52.182;5.404;2023-05-10T11:25:41;12.93;;;7.30;;
36009;SDS011;22076;52.182;5.404;2023-05-10T11:28:09;11.27;;;6.40;;
36009;SDS011;22076;52.182;5.404;2023-05-10T11:30:36;14.40;;;7.97;;
36009;SDS011;22076;52.182;5.404;2023-05-10T11:33:04;10.90;;;6.40;;
36009;SDS011;22076;52.182;5.404;2023-05-10T11:35:31;14.20;;;7.18;;
36009;SDS011;22076;52.182;5.404;2023-05-10T11:38:06;13.43;;;8.03;;
36009;SDS011;22076;52.182;5.404;2023-05-10T11:40:33;14.98;;;8.20;;
36009;SDS011;22076;52.182;5.404;2023-05-10T11:42:59;16.65;;;8.20;;
36009;SDS011;22076;52.182;5.404;2023-05-10T11:45:26;10.65;;;5.32;;
36009;SDS011;22076;52.182;5.404;2023-05-10T11:47:54;11.18;;;5.68;;
36009;SDS011;22076;52.182;5.404;2023-05-10T11:50:21;16.30;;;7.38;;
36009;SDS011;22076;52.182;5.404;2023-05-10T11:52:50;10.63;;;6.28;;
36009;SDS011;22076;52.182;5.404;2023-05-10T11:55:18;14.43;;;6.90;;
36009;SDS011;22076;52.182;5.404;2023-05-10T11:57:45;10.77;;;5.82;;
36009;SDS011;22076;52.182;5.404;2023-05-10T12:00:12;13.35;;;6.57;;
36009;SDS011;22076;52.182;5.404;2023-05-10T12:02:39;10.85;;;4.95;;
36009;SDS011;22076;52.182;5.404;2023-05-10T12:05:06;10.75;;;5.55;;
36009;SDS011;22076;52.182;5.404;2023-05-10T12:07:33;7.90;;;4.88;;
36009;SDS011;22076;52.182;5.404;2023-05-10T12:10:06;13.15;;;5.97;;
36009;SDS011;22076;52.182;5.404;2023-05-10T12:12:38;10.30;;;5.13;;
36009;SDS011;22076;52.182;5.404;2023-05-10T12:15:10;9.07;;;5.72;;
36009;SDS011;22076;52.182;5.404;2023-05-10T12:17:37;8.02;;;4.55;;
36009;SDS011;22076;52.182;5.404;2023-05-10T12:20:14;6.88;;;4.57;;
36009;SDS011;22076;52.182;5.404;2023-05-10T12:22:43;8.63;;;4.80;;
36009;SDS011;22076;52.182;5.404;2023-05-10T12:25:10;13.60;;;5.95;;
36009;SDS011;22076;52.182;5.404;2023-05-10T12:27:38;7.53;;;4.63;;
36009;SDS011;22076;52.182;5.404;2023-05-10T12:30:05;6.68;;;4.22;;
36009;SDS011;22076;52.182;5.404;2023-05-10T12:32:39;6.72;;;4.50;;
36009;SDS011;22076;52.182;5.404;2023-05-10T12:35:06;10.02;;;5.32;;
36009;SDS011;22076;52.182;5.404;2023-05-10T12:37:33;6.28;;;4.13;;
36009;SDS011;22076;52.182;5.404;2023-05-10T12:40:04;7.18;;;4.57;;
36009;SDS011;22076;52.182;5.404;2023-05-10T12:42:33;7.30;;;4.03;;
36009;SDS011;22076;52.182;5.404;2023-05-10T12:45:02;6.90;;;4.05;;
36009;SDS011;22076;52.182;5.404;2023-05-10T12:47:28;4.90;;;3.67;;
36009;SDS011;22076;52.182;5.404;2023-05-10T12:49:55;5.22;;;3.53;;
36009;SDS011;22076;52.182;5.404;2023-05-10T12:52:22;4.35;;;3.03;;
36009;SDS011;22076;52.182;5.404;2023-05-10T12:54:48;3.95;;;2.75;;
36009;SDS011;22076;52.182;5.404;2023-05-10T12:57:16;8.23;;;3.35;;
36009;SDS011;22076;52.182;5.404;2023-05-10T12:59:43;9.38;;;3.47;;
36009;SDS011;22076;52.182;5.404;2023-05-10T13:02:11;5.13;;;3.58;;
36009;SDS011;22076;52.182;5.404;2023-05-10T13:04:38;5.00;;;3.10;;
36009;SDS011;22076;52.182;5.404;2023-05-10T13:07:05;4.53;;;3.45;;
36009;SDS011;22076;52.182;5.404;2023-05-10T13:09:32;5.57;;;3.00;;
36009;SDS011;22076;52.182;5.404;2023-05-10T13:11:59;4.28;;;2.90;;
36009;SDS011;22076;52.182;5.404;2023-05-10T13:14:26;5.10;;;2.70;;
36009;SDS011;22076;52.182;5.404;2023-05-10T13:16:52;5.63;;;2.95;;
36009;SDS011;22076;52.182;5.404;2023-05-10T13:19:22;5.80;;;2.90;;
36009;SDS011;22076;52.182;5.404;2023-05-10T13:21:49;4.63;;;3.30;;
36009;SDS011;22076;52.182;5.404;2023-05-10T13:24:16;4.25;;;2.72;;
36009;SDS011;22076;52.182;5.404;2023-05-10T13:26:43;4.45;;;2.92;;
36009;SDS011;22076;52.182;5.404;2023-05-10T13:29:10;5.88;;;2.92;;
36009;SDS011;22076;52.182;5.404;2023-05-10T13:31:36;6.60;;;4.30;;
36009;SDS011;22076;52.182;5.404;2023-05-10T13:34:03;18.70;;;5.03;;
36009;SDS011;22076;52.182;5.404;2023-05-10T13:36:31;8.02;;;4.38;;
36009;SDS011;22076;52.182;5.404;2023-05-10T13:38:57;10.50;;;5.65;;
36009;SDS011;22076;52.182;5.404;2023-05-10T13:41:26;7.82;;;4.45;;
36009;SDS011;22076;52.182;5.404;2023-05-10T13:43:53;12.55;;;6.20;;
36009;SDS011;22076;52.182;5.404;2023-05-10T13:46:19;13.25;;;7.43;;
36009;SDS011;22076;52.182;5.404;2023-05-10T13:48:46;10.45;;;4.88;;
36009;SDS011;22076;52.182;5.404;2023-05-10T13:51:12;19.73;;;9.77;;
36009;SDS011;22076;52.182;5.404;2023-05-10T13:53:40;13.90;;;7.93;;
36009;SDS011;22076;52.182;5.404;2023-05-10T13:56:07;9.82;;;5.03;;
36009;SDS011;22076;52.182;5.404;2023-05-10T13:58:33;15.95;;;9.43;;
36009;SDS011;22076;52.182;5.404;2023-05-10T14:01:01;16.92;;;8.65;;
36009;SDS011;22076;52.182;5.404;2023-05-10T14:03:28;14.63;;;6.93;;
36009;SDS011;22076;52.182;5.404;2023-05-10T14:05:54;13.43;;;7.22;;
36009;SDS011;22076;52.182;5.404;2023-05-10T14:08:21;11.57;;;6.85;;
36009;SDS011;22076;52.182;5.404;2023-05-10T14:10:51;15.93;;;8.73;;
36009;SDS011;22076;52.182;5.404;2023-05-10T14:13:17;9.82;;;5.20;;
36009;SDS011;22076;52.182;5.404;2023-05-10T14:15:45;10.98;;;5.88;;
36009;SDS011;22076;52.182;5.404;2023-05-10T14:18:11;11.18;;;6.38;;
36009;SDS011;22076;52.182;5.404;2023-05-10T14:20:38;15.48;;;8.80;;
36009;SDS011;22076;52.182;5.404;2023-05-10T14:23:05;14.45;;;7.47;;
36009;SDS011;22076;52.182;5.404;2023-05-10T14:25:32;12.52;;;6.18;;
36009;SDS011;22076;52.182;5.404;2023-05-10T14:28:01;13.00;;;7.60;;
36009;SDS011;22076;52.182;5.404;2023-05-10T14:30:27;14.57;;;7.22;;
36009;SDS011;22076;52.182;5.404;2023-05-10T14:32:54;8.75;;;5.28;;
36009;SDS011;22076;52.182;5.404;2023-05-10T14:35:24;10.75;;;6.15;;
36009;SDS011;22076;52.182;5.404;2023-05-10T14:37:50;12.07;;;6.47;;
36009;SDS011;22076;52.182;5.404;2023-05-10T14:40:17;10.20;;;5.88;;
36009;SDS011;22076;52.182;5.404;2023-05-10T14:42:44;10.02;;;5.70;;